sensor_id;sensor_type;location;lat;lon;timestamp;pressure;altitude;pressure_sealevel;temperature;humidity
74474;BME280;62922;-6.168;106.796;2022-12-31T00:01:48;101158.03;;;29.46;69.62
74474;BME280;62922;-6.168;106.796;2022-12-31T00:04:14;101124.53;;;29.23;69.19
74474;BME280;62922;-6.168;106.796;2022-12-31T00:06:40;101161.75;;;29.42;69.22
74474;BME280;62922;-6.168;106.796;2022-12-31T00:09:07;101141.59;;;29.26;69.48
74474;BME280;62922;-6.168;106.796;2022-12-31T00:11:34;101167.72;;;29.40;69.44
74474;BME280;62922;-6.168;106.796;2022-12-31T00:14:01;101182.38;;;29.51;69.38
74474;BME280;62922;-6.168;106.796;2022-12-31T00:16:33;101174.19;;;29.41;69.46
74474;BME280;62922;-6.168;106.796;2022-12-31T00:19:01;101150.97;;;29.22;69.13
74474;BME280;62922;-6.168;106.796;2022-12-31T00:21:31;101205.19;;;29.63;69.28
74474;BME280;62922;-6.168;106.796;2022-12-31T00:24:00;101210.59;;;29.73;69.42
74474;BME280;62922;-6.168;106.796;2022-12-31T00:26:30;101215.16;;;29.83;70.06
74474;BME280;62922;-6.168;106.796;2022-12-31T00:29:00;101214.97;;;29.79;69.66
74474;BME280;62922;-6.168;106.796;2022-12-31T00:31:32;101222.97;;;29.86;69.56
74474;BME280;62922;-6.168;106.796;2022-12-31T00:33:59;101229.00;;;29.93;69.35
74474;BME280;62922;-6.168;106.796;2022-12-31T00:36:28;101140.97;;;29.29;69.33
74474;BME280;62922;-6.168;106.796;2022-12-31T00:38:59;101234.22;;;29.86;69.35
74474;BME280;62922;-6.168;106.796;2022-12-31T00:41:29;101191.72;;;29.60;69.38
74474;BME280;62922;-6.168;106.796;2022-12-31T00:43:56;101187.66;;;29.52;69.56
74474;BME280;62922;-6.168;106.796;2022-12-31T00:46:23;101209.84;;;29.67;69.34
74474;BME280;62922;-6.168;106.796;2022-12-31T00:48:52;101242.47;;;29.82;68.81
74474;BME280;62922;-6.168;106.796;2022-12-31T00:51:20;101250.91;;;29.82;69.06
74474;BME280;62922;-6.168;106.796;2022-12-31T00:53:52;101250.91;;;29.82;68.81
74474;BME280;62922;-6.168;106.796;2022-12-31T00:56:21;101244.56;;;29.77;68.91
74474;BME280;62922;-6.168;106.796;2022-12-31T00:58:48;101216.72;;;29.61;68.79
74474;BME280;62922;-6.168;106.796;2022-12-31T01:01:26;101234.56;;;29.70;68.75
74474;BME280;62922;-6.168;106.796;2022-12-31T01:03:55;101239.44;;;29.79;68.70
74474;BME280;62922;-6.168;106.796;2022-12-31T01:06:23;101252.16;;;29.76;68.75
74474;BME280;62922;-6.168;106.796;2022-12-31T01:08:50;101249.22;;;29.67;68.66
74474;BME280;62922;-6.168;106.796;2022-12-31T01:11:17;101224.44;;;29.56;68.98
74474;BME280;62922;-6.168;106.796;2022-12-31T01:13:45;101243.91;;;29.66;68.70
74474;BME280;62922;-6.168;106.796;2022-12-31T01:16:13;101225.78;;;29.58;69.12
74474;BME280;62922;-6.168;106.796;2022-12-31T01:18:39;101229.97;;;29.61;68.96
74474;BME280;62922;-6.168;106.796;2022-12-31T01:21:07;101230.16;;;29.64;68.64
74474;BME280;62922;-6.168;106.796;2022-12-31T01:23:34;101227.88;;;29.66;68.66
74474;BME280;62922;-6.168;106.796;2022-12-31T01:26:03;101222.16;;;29.58;68.33
74474;BME280;62922;-6.168;106.796;2022-12-31T01:28:33;101228.69;;;29.67;68.59
74474;BME280;62922;-6.168;106.796;2022-12-31T01:31:06;101217.34;;;29.58;68.29
74474;BME280;62922;-6.168;106.796;2022-12-31T01:33:33;101184.69;;;29.35;68.14
74474;BME280;62922;-6.168;106.796;2022-12-31T01:36:06;101249.78;;;29.69;68.30
74474;BME280;62922;-6.168;106.796;2022-12-31T01:38:33;101253.63;;;29.74;68.03
74474;BME280;62922;-6.168;106.796;2022-12-31T01:41:00;101220.69;;;29.47;68.23
74474;BME280;62922;-6.168;106.796;2022-12-31T01:46:00;101210.81;;;29.36;68.09
74474;BME280;62922;-6.168;106.796;2022-12-31T01:48:26;101280.16;;;29.67;68.19
74474;BME280;62922;-6.168;106.796;2022-12-31T01:50:53;101256.81;;;29.67;68.06
74474;BME280;62922;-6.168;106.796;2022-12-31T01:53:20;101242.47;;;29.55;67.73
74474;BME280;62922;-6.168;106.796;2022-12-31T01:55:51;101253.06;;;29.58;68.13
74474;BME280;62922;-6.168;106.796;2022-12-31T01:58:21;101263.84;;;29.83;67.68
74474;BME280;62922;-6.168;106.796;2022-12-31T02:00:49;101257.28;;;29.74;68.11
74474;BME280;62922;-6.168;106.796;2022-12-31T02:03:16;101247.81;;;29.70;67.88
74474;BME280;62922;-6.168;106.796;2022-12-31T02:05:47;101254.03;;;29.81;68.01
74474;BME280;62922;-6.168;106.796;2022-12-31T02:08:15;101261.63;;;29.80;67.86
74474;BME280;62922;-6.168;106.796;2022-12-31T02:10:41;101258.50;;;29.82;67.67
74474;BME280;62922;-6.168;106.796;2022-12-31T02:13:08;101256.00;;;29.80;66.99
74474;BME280;62922;-6.168;106.796;2022-12-31T02:15:38;101255.06;;;29.85;66.90
74474;BME280;62922;-6.168;106.796;2022-12-31T02:30:41;101229.22;;;29.83;67.88
74474;BME280;62922;-6.168;106.796;2022-12-31T02:33:12;101255.66;;;30.09;68.18
74474;BME280;62922;-6.168;106.796;2022-12-31T02:35:47;101254.81;;;30.08;68.04
74474;BME280;62922;-6.168;106.796;2022-12-31T02:38:21;101191.22;;;29.58;67.93
74474;BME280;62922;-6.168;106.796;2022-12-31T02:40:48;101259.72;;;30.03;67.46
74474;BME280;62922;-6.168;106.796;2022-12-31T02:43:15;101177.91;;;29.50;67.36
74474;BME280;62922;-6.168;106.796;2022-12-31T02:45:45;101214.78;;;29.76;66.77
74474;BME280;62922;-6.168;106.796;2022-12-31T02:48:16;101263.56;;;30.07;67.02
74474;BME280;62922;-6.168;106.796;2022-12-31T02:55:57;101234.22;;;29.58;67.76
74474;BME280;62922;-6.168;106.796;2022-12-31T03:01:00;101192.69;;;29.28;67.97
74474;BME280;62922;-6.168;106.796;2022-12-31T03:03:30;101205.38;;;29.39;67.54
74474;BME280;62922;-6.168;106.796;2022-12-31T03:05:57;101250.25;;;29.58;68.00
74474;BME280;62922;-6.168;106.796;2022-12-31T03:08:26;101197.38;;;29.33;68.57
74474;BME280;62922;-6.168;106.796;2022-12-31T03:10:52;101227.56;;;29.54;67.49
74474;BME280;62922;-6.168;106.796;2022-12-31T03:13:22;101232.69;;;29.39;68.08
74474;BME280;62922;-6.168;106.796;2022-12-31T03:15:49;101208.94;;;29.18;68.23
74474;BME280;62922;-6.168;106.796;2022-12-31T03:18:17;101249.63;;;29.34;68.32
74474;BME280;62922;-6.168;106.796;2022-12-31T03:21:12;101245.59;;;29.26;68.25
74474;BME280;62922;-6.168;106.796;2022-12-31T03:23:43;101246.34;;;29.32;68.41
74474;BME280;62922;-6.168;106.796;2022-12-31T03:26:15;101173.59;;;28.85;68.33
74474;BME280;62922;-6.168;106.796;2022-12-31T03:28:42;101226.63;;;29.18;67.93
74474;BME280;62922;-6.168;106.796;2022-12-31T03:31:13;101259.66;;;29.40;67.81
74474;BME280;62922;-6.168;106.796;2022-12-31T03:33:41;101191.31;;;28.99;67.35
74474;BME280;62922;-6.168;106.796;2022-12-31T03:36:11;101255.38;;;29.29;67.53
74474;BME280;62922;-6.168;106.796;2022-12-31T03:38:38;101245.38;;;29.36;66.94
74474;BME280;62922;-6.168;106.796;2022-12-31T03:41:05;101213.31;;;29.24;66.59
74474;BME280;62922;-6.168;106.796;2022-12-31T03:43:34;101207.28;;;29.17;66.59
74474;BME280;62922;-6.168;106.796;2022-12-31T03:46:00;101182.16;;;29.07;66.99
74474;BME280;62922;-6.168;106.796;2022-12-31T03:48:27;101154.47;;;29.00;67.38
74474;BME280;62922;-6.168;106.796;2022-12-31T03:50:53;101226.75;;;29.40;67.05
74474;BME280;62922;-6.168;106.796;2022-12-31T03:53:20;101226.88;;;29.35;66.68
74474;BME280;62922;-6.168;106.796;2022-12-31T03:55:51;101217.69;;;29.30;66.26
74474;BME280;62922;-6.168;106.796;2022-12-31T03:58:18;101236.31;;;29.39;66.30
74474;BME280;62922;-6.168;106.796;2022-12-31T04:00:44;101207.16;;;29.22;66.68
74474;BME280;62922;-6.168;106.796;2022-12-31T04:03:10;101195.09;;;29.21;66.44
74474;BME280;62922;-6.168;106.796;2022-12-31T04:05:36;101194.56;;;29.33;65.89
74474;BME280;62922;-6.168;106.796;2022-12-31T04:08:03;101216.88;;;29.43;65.85
74474;BME280;62922;-6.168;106.796;2022-12-31T04:10:29;101228.53;;;29.50;65.55
74474;BME280;62922;-6.168;106.796;2022-12-31T04:12:55;101222.25;;;29.53;65.51
74474;BME280;62922;-6.168;106.796;2022-12-31T04:15:24;101160.75;;;29.24;65.84
74474;BME280;62922;-6.168;106.796;2022-12-31T04:17:53;101209.97;;;29.49;65.63
74474;BME280;62922;-6.168;106.796;2022-12-31T04:20:20;101146.78;;;29.19;65.58
74474;BME280;62922;-6.168;106.796;2022-12-31T04:22:46;101187.38;;;29.40;65.25
74474;BME280;62922;-6.168;106.796;2022-12-31T04:25:12;101162.59;;;29.29;64.96
74474;BME280;62922;-6.168;106.796;2022-12-31T04:27:40;101224.88;;;29.63;64.52
74474;BME280;62922;-6.168;106.796;2022-12-31T04:30:09;101211.53;;;29.68;64.31
74474;BME280;62922;-6.168;106.796;2022-12-31T04:32:36;101210.69;;;29.68;64.12
74474;BME280;62922;-6.168;106.796;2022-12-31T04:35:02;101182.78;;;29.58;64.23
74474;BME280;62922;-6.168;106.796;2022-12-31T04:37:29;101210.66;;;29.82;64.52
74474;BME280;62922;-6.168;106.796;2022-12-31T04:39:55;101166.28;;;29.65;63.27
74474;BME280;62922;-6.168;106.796;2022-12-31T04:42:24;101191.75;;;29.74;63.57
74474;BME280;62922;-6.168;106.796;2022-12-31T04:44:50;101184.63;;;29.76;64.35
74474;BME280;62922;-6.168;106.796;2022-12-31T04:47:17;101147.50;;;29.52;64.31
74474;BME280;62922;-6.168;106.796;2022-12-31T04:49:43;101175.72;;;29.74;64.20
74474;BME280;62922;-6.168;106.796;2022-12-31T04:52:09;101161.13;;;29.72;63.57
74474;BME280;62922;-6.168;106.796;2022-12-31T04:54:35;101157.03;;;29.78;63.53
74474;BME280;62922;-6.168;106.796;2022-12-31T04:57:02;101155.38;;;29.77;64.41
74474;BME280;62922;-6.168;106.796;2022-12-31T04:59:28;101150.06;;;29.76;63.74
74474;BME280;62922;-6.168;106.796;2022-12-31T05:01:54;101106.06;;;29.44;64.25
74474;BME280;62922;-6.168;106.796;2022-12-31T05:04:20;101190.25;;;29.90;63.28
74474;BME280;62922;-6.168;106.796;2022-12-31T05:06:50;101109.03;;;29.61;63.25
74474;BME280;62922;-6.168;106.796;2022-12-31T05:09:16;101132.16;;;29.72;63.65
74474;BME280;62922;-6.168;106.796;2022-12-31T05:11:42;101134.19;;;29.80;63.52
74474;BME280;62922;-6.168;106.796;2022-12-31T05:14:09;101152.09;;;29.84;63.65
74474;BME280;62922;-6.168;106.796;2022-12-31T05:16:35;101092.78;;;29.58;63.84
74474;BME280;62922;-6.168;106.796;2022-12-31T05:19:02;101029.06;;;29.31;63.38
74474;BME280;62922;-6.168;106.796;2022-12-31T05:21:31;101055.09;;;29.59;62.82
74474;BME280;62922;-6.168;106.796;2022-12-31T05:23:57;101069.22;;;29.67;63.40
74474;BME280;62922;-6.168;106.796;2022-12-31T05:26:23;101107.69;;;29.94;63.18
74474;BME280;62922;-6.168;106.796;2022-12-31T05:28:50;101064.84;;;29.75;63.19
74474;BME280;62922;-6.168;106.796;2022-12-31T05:31:16;101136.97;;;30.15;63.19
74474;BME280;62922;-6.168;106.796;2022-12-31T05:33:42;101113.75;;;30.10;63.67
74474;BME280;62922;-6.168;106.796;2022-12-31T05:36:08;101126.28;;;30.04;63.12
74474;BME280;62922;-6.168;106.796;2022-12-31T05:38:36;101066.91;;;29.83;64.06
74474;BME280;62922;-6.168;106.796;2022-12-31T05:41:05;101044.44;;;29.69;64.26
74474;BME280;62922;-6.168;106.796;2022-12-31T05:43:33;101074.34;;;30.10;64.17
74474;BME280;62922;-6.168;106.796;2022-12-31T05:46:01;101100.53;;;30.32;63.66
74474;BME280;62922;-6.168;106.796;2022-12-31T05:48:28;101043.41;;;30.10;63.71
74474;BME280;62922;-6.168;106.796;2022-12-31T05:50:54;101036.94;;;30.09;63.20
74474;BME280;62922;-6.168;106.796;2022-12-31T05:53:26;101098.28;;;30.43;63.32
74474;BME280;62922;-6.168;106.796;2022-12-31T05:55:52;101091.47;;;30.44;62.97
74474;BME280;62922;-6.168;106.796;2022-12-31T05:58:18;101042.44;;;30.14;63.02
74474;BME280;62922;-6.168;106.796;2022-12-31T06:00:45;101076.06;;;30.41;63.32
74474;BME280;62922;-6.168;106.796;2022-12-31T06:03:11;101058.66;;;30.39;62.15
74474;BME280;62922;-6.168;106.796;2022-12-31T06:05:40;101064.47;;;30.43;62.33
74474;BME280;62922;-6.168;106.796;2022-12-31T06:08:07;100997.53;;;30.09;62.36
74474;BME280;62922;-6.168;106.796;2022-12-31T06:10:33;101009.22;;;30.25;61.92
74474;BME280;62922;-6.168;106.796;2022-12-31T06:13:03;101029.00;;;30.42;61.93
74474;BME280;62922;-6.168;106.796;2022-12-31T06:15:29;100964.56;;;30.01;62.21
74474;BME280;62922;-6.168;106.796;2022-12-31T06:17:55;101037.66;;;30.45;62.49
74474;BME280;62922;-6.168;106.796;2022-12-31T06:20:22;101020.78;;;30.45;62.15
74474;BME280;62922;-6.168;106.796;2022-12-31T06:22:48;101008.34;;;30.46;62.19
74474;BME280;62922;-6.168;106.796;2022-12-31T06:25:14;100969.13;;;30.19;62.77
74474;BME280;62922;-6.168;106.796;2022-12-31T06:27:41;100997.22;;;30.41;62.39
74474;BME280;62922;-6.168;106.796;2022-12-31T06:30:07;101012.38;;;30.62;61.98
74474;BME280;62922;-6.168;106.796;2022-12-31T06:32:34;101003.41;;;30.60;61.42
74474;BME280;62922;-6.168;106.796;2022-12-31T06:35:00;100975.56;;;30.50;61.27
74474;BME280;62922;-6.168;106.796;2022-12-31T06:37:27;100993.66;;;30.58;61.35
74474;BME280;62922;-6.168;106.796;2022-12-31T06:39:53;100977.22;;;30.51;61.60
74474;BME280;62922;-6.168;106.796;2022-12-31T06:42:19;100931.13;;;30.30;60.90
74474;BME280;62922;-6.168;106.796;2022-12-31T06:44:45;101003.97;;;30.71;61.39
74474;BME280;62922;-6.168;106.796;2022-12-31T06:47:14;100978.38;;;30.50;62.04
74474;BME280;62922;-6.168;106.796;2022-12-31T06:49:40;100993.81;;;30.61;61.63
74474;BME280;62922;-6.168;106.796;2022-12-31T06:52:07;100967.28;;;30.54;61.65
74474;BME280;62922;-6.168;106.796;2022-12-31T06:54:33;100973.34;;;30.87;61.04
74474;BME280;62922;-6.168;106.796;2022-12-31T06:57:00;100981.50;;;31.05;60.06
74474;BME280;62922;-6.168;106.796;2022-12-31T06:59:27;100898.06;;;30.61;60.09
74474;BME280;62922;-6.168;106.796;2022-12-31T07:07:06;100986.06;;;30.67;61.75
74474;BME280;62922;-6.168;106.796;2022-12-31T07:09:37;100996.03;;;30.34;62.22
74474;BME280;62922;-6.168;106.796;2022-12-31T07:14:48;100943.31;;;29.42;64.78
74474;BME280;62922;-6.168;106.796;2022-12-31T07:20:05;100962.47;;;29.40;64.09
74474;BME280;62922;-6.168;106.796;2022-12-31T07:22:32;100981.47;;;29.57;63.90
74474;BME280;62922;-6.168;106.796;2022-12-31T07:24:59;100967.03;;;29.50;64.28
74474;BME280;62922;-6.168;106.796;2022-12-31T07:27:42;101010.28;;;29.62;64.87
74474;BME280;62922;-6.168;106.796;2022-12-31T07:30:15;100979.00;;;29.20;64.41
74474;BME280;62922;-6.168;106.796;2022-12-31T07:35:16;100983.44;;;28.85;63.90
74474;BME280;62922;-6.168;106.796;2022-12-31T07:40:23;101026.59;;;28.75;64.84
74474;BME280;62922;-6.168;106.796;2022-12-31T07:43:39;100972.44;;;28.34;64.66
74474;BME280;62922;-6.168;106.796;2022-12-31T07:45:51;101032.47;;;28.65;64.41
74474;BME280;62922;-6.168;106.796;2022-12-31T07:48:26;101016.72;;;28.64;65.19
74474;BME280;62922;-6.168;106.796;2022-12-31T07:50:55;101017.47;;;28.56;64.47
74474;BME280;62922;-6.168;106.796;2022-12-31T07:53:24;100991.06;;;28.57;64.96
74474;BME280;62922;-6.168;106.796;2022-12-31T07:55:55;100952.97;;;28.24;65.28
74474;BME280;62922;-6.168;106.796;2022-12-31T07:58:31;101019.78;;;28.54;65.84
74474;BME280;62922;-6.168;106.796;2022-12-31T08:01:00;101008.63;;;28.49;66.10
74474;BME280;62922;-6.168;106.796;2022-12-31T08:13:26;100993.84;;;28.30;67.77
74474;BME280;62922;-6.168;106.796;2022-12-31T08:15:53;101013.38;;;28.35;67.91
74474;BME280;62922;-6.168;106.796;2022-12-31T08:18:19;101018.19;;;28.35;67.68
74474;BME280;62922;-6.168;106.796;2022-12-31T08:23:35;100946.72;;;28.00;67.98
74474;BME280;62922;-6.168;106.796;2022-12-31T08:31:16;100999.25;;;28.27;68.12
74474;BME280;62922;-6.168;106.796;2022-12-31T08:38:49;101012.13;;;28.28;69.21
74474;BME280;62922;-6.168;106.796;2022-12-31T08:46:33;100989.25;;;28.21;69.78
74474;BME280;62922;-6.168;106.796;2022-12-31T08:49:03;100992.59;;;28.23;69.77
74474;BME280;62922;-6.168;106.796;2022-12-31T08:51:30;100947.75;;;27.91;70.38
74474;BME280;62922;-6.168;106.796;2022-12-31T08:53:56;100900.31;;;27.62;70.50
74474;BME280;62922;-6.168;106.796;2022-12-31T09:01:53;101012.66;;;28.16;71.05
74474;BME280;62922;-6.168;106.796;2022-12-31T09:07:16;100986.97;;;28.09;71.16
74474;BME280;62922;-6.168;106.796;2022-12-31T09:12:41;100995.50;;;28.18;70.66
74474;BME280;62922;-6.168;106.796;2022-12-31T09:15:20;100981.66;;;28.08;70.58
74474;BME280;62922;-6.168;106.796;2022-12-31T09:17:50;100957.94;;;28.00;70.12
74474;BME280;62922;-6.168;106.796;2022-12-31T09:20:23;100921.84;;;27.80;69.98
74474;BME280;62922;-6.168;106.796;2022-12-31T09:22:51;100983.22;;;28.14;70.87
74474;BME280;62922;-6.168;106.796;2022-12-31T09:25:19;100975.66;;;28.14;70.57
74474;BME280;62922;-6.168;106.796;2022-12-31T09:30:15;100974.38;;;28.07;70.53
74474;BME280;62922;-6.168;106.796;2022-12-31T09:37:57;100982.16;;;27.96;70.68
74474;BME280;62922;-6.168;106.796;2022-12-31T09:42:58;100980.91;;;28.02;70.21
74474;BME280;62922;-6.168;106.796;2022-12-31T09:55:44;100966.59;;;28.04;70.90
74474;BME280;62922;-6.168;106.796;2022-12-31T09:58:18;100958.47;;;28.02;71.04
74474;BME280;62922;-6.168;106.796;2022-12-31T10:11:13;100960.75;;;28.00;70.92
74474;BME280;62922;-6.168;106.796;2022-12-31T10:26:23;100954.41;;;27.95;71.15
74474;BME280;62922;-6.168;106.796;2022-12-31T10:36:29;100966.78;;;27.94;71.74
74474;BME280;62922;-6.168;106.796;2022-12-31T10:49:04;100981.22;;;28.01;72.11
74474;BME280;62922;-6.168;106.796;2022-12-31T11:25:05;101084.16;;;28.32;73.29
74474;BME280;62922;-6.168;106.796;2022-12-31T11:37:46;101097.34;;;28.18;72.82
74474;BME280;62922;-6.168;106.796;2022-12-31T11:40:20;101087.13;;;28.09;72.56
74474;BME280;62922;-6.168;106.796;2022-12-31T11:42:57;101084.16;;;28.00;72.58
74474;BME280;62922;-6.168;106.796;2022-12-31T11:45:36;101115.41;;;28.12;72.63
74474;BME280;62922;-6.168;106.796;2022-12-31T11:50:49;101128.91;;;28.10;72.37
74474;BME280;62922;-6.168;106.796;2022-12-31T11:58:28;101112.31;;;27.95;72.18
74474;BME280;62922;-6.168;106.796;2022-12-31T12:03:28;101099.34;;;27.99;72.50
74474;BME280;62922;-6.168;106.796;2022-12-31T12:05:56;101131.41;;;28.12;72.43
74474;BME280;62922;-6.168;106.796;2022-12-31T12:08:24;101105.06;;;27.94;71.89
74474;BME280;62922;-6.168;106.796;2022-12-31T12:11:04;101118.22;;;27.94;72.86
74474;BME280;62922;-6.168;106.796;2022-12-31T12:13:32;101130.44;;;28.03;73.00
74474;BME280;62922;-6.168;106.796;2022-12-31T12:16:01;101125.75;;;27.98;72.85
74474;BME280;62922;-6.168;106.796;2022-12-31T12:21:02;101111.78;;;27.93;73.90
74474;BME280;62922;-6.168;106.796;2022-12-31T12:23:30;101140.34;;;28.14;73.66
74474;BME280;62922;-6.168;106.796;2022-12-31T12:25:57;101136.41;;;28.15;74.27
74474;BME280;62922;-6.168;106.796;2022-12-31T12:28:27;101160.31;;;28.26;74.81
74474;BME280;62922;-6.168;106.796;2022-12-31T12:30:58;101114.53;;;27.98;74.51
74474;BME280;62922;-6.168;106.796;2022-12-31T12:33:27;101137.66;;;28.22;75.76
74474;BME280;62922;-6.168;106.796;2022-12-31T12:36:07;101158.09;;;28.41;75.67
74474;BME280;62922;-6.168;106.796;2022-12-31T12:38:34;101157.47;;;28.44;75.87
74474;BME280;62922;-6.168;106.796;2022-12-31T12:41:04;101153.91;;;28.39;75.20
74474;BME280;62922;-6.168;106.796;2022-12-31T12:43:33;101154.34;;;28.32;74.89
74474;BME280;62922;-6.168;106.796;2022-12-31T12:46:14;101087.91;;;27.96;74.58
74474;BME280;62922;-6.168;106.796;2022-12-31T12:48:43;101145.84;;;28.19;73.54
74474;BME280;62922;-6.168;106.796;2022-12-31T12:56:21;101162.03;;;28.08;74.29
74474;BME280;62922;-6.168;106.796;2022-12-31T13:11:37;101168.72;;;27.94;74.41
74474;BME280;62922;-6.168;106.796;2022-12-31T13:19:27;101155.66;;;27.84;74.89
74474;BME280;62922;-6.168;106.796;2022-12-31T13:29:47;101169.63;;;27.89;74.67
74474;BME280;62922;-6.168;106.796;2022-12-31T13:32:20;101123.06;;;27.51;73.71
74474;BME280;62922;-6.168;106.796;2022-12-31T13:34:52;101123.06;;;27.51;73.19
74474;BME280;62922;-6.168;106.796;2022-12-31T13:37:24;101177.09;;;27.75;73.90
74474;BME280;62922;-6.168;106.796;2022-12-31T13:40:00;101096.72;;;27.33;73.74
74474;BME280;62922;-6.168;106.796;2022-12-31T13:42:36;101125.63;;;27.47;73.41
74474;BME280;62922;-6.168;106.796;2022-12-31T13:45:11;101176.25;;;27.74;73.58
74474;BME280;62922;-6.168;106.796;2022-12-31T13:47:57;101167.09;;;27.69;74.29
74474;BME280;62922;-6.168;106.796;2022-12-31T13:50:30;101177.63;;;27.77;74.35
74474;BME280;62922;-6.168;106.796;2022-12-31T13:53:12;101179.00;;;27.79;73.94
74474;BME280;62922;-6.168;106.796;2022-12-31T13:55:43;101174.06;;;27.71;74.16
74474;BME280;62922;-6.168;106.796;2022-12-31T14:06:05;101131.84;;;27.44;74.40
74474;BME280;62922;-6.168;106.796;2022-12-31T14:08:30;101180.34;;;27.82;74.43
74474;BME280;62922;-6.168;106.796;2022-12-31T14:11:11;101157.91;;;27.82;74.02
74474;BME280;62922;-6.168;106.796;2022-12-31T14:16:39;101150.34;;;27.83;74.05
74474;BME280;62922;-6.168;106.796;2022-12-31T14:24:18;101116.13;;;27.67;74.48
74474;BME280;62922;-6.168;106.796;2022-12-31T14:26:54;101126.41;;;27.71;74.20
74474;BME280;62922;-6.168;106.796;2022-12-31T14:29:39;101058.91;;;27.31;74.42
74474;BME280;62922;-6.168;106.796;2022-12-31T14:42:26;101045.88;;;27.40;75.00
74474;BME280;62922;-6.168;106.796;2022-12-31T14:52:32;101162.31;;;27.88;74.57
74474;BME280;62922;-6.168;106.796;2022-12-31T14:57:34;101169.75;;;27.79;73.89
74474;BME280;62922;-6.168;106.796;2022-12-31T15:00:21;101188.31;;;27.75;74.09
74474;BME280;62922;-6.168;106.796;2022-12-31T15:02:50;101116.31;;;27.33;74.72
74474;BME280;62922;-6.168;106.796;2022-12-31T15:05:20;101194.00;;;27.70;73.55
74474;BME280;62922;-6.168;106.796;2022-12-31T15:07:51;101206.13;;;27.65;74.04
74474;BME280;62922;-6.168;106.796;2022-12-31T15:23:22;101245.00;;;27.72;74.27
74474;BME280;62922;-6.168;106.796;2022-12-31T15:25:58;101196.66;;;27.38;74.04
74474;BME280;62922;-6.168;106.796;2022-12-31T15:28:31;101235.59;;;27.63;73.83
74474;BME280;62922;-6.168;106.796;2022-12-31T15:31:04;101237.25;;;27.64;73.81
74474;BME280;62922;-6.168;106.796;2022-12-31T15:33:35;101237.50;;;27.67;74.08
74474;BME280;62922;-6.168;106.796;2022-12-31T15:38:36;101217.19;;;27.57;73.37
74474;BME280;62922;-6.168;106.796;2022-12-31T15:46:22;101211.09;;;27.50;73.79
74474;BME280;62922;-6.168;106.796;2022-12-31T15:49:10;101177.16;;;27.28;73.59
74474;BME280;62922;-6.168;106.796;2022-12-31T15:51:59;101208.75;;;27.57;73.91
74474;BME280;62922;-6.168;106.796;2022-12-31T15:54:32;101162.31;;;27.32;73.79
74474;BME280;62922;-6.168;106.796;2022-12-31T15:57:00;101138.31;;;27.21;73.61
74474;BME280;62922;-6.168;106.796;2022-12-31T15:59:27;101155.13;;;27.21;73.28
74474;BME280;62922;-6.168;106.796;2022-12-31T16:01:55;101180.38;;;27.40;73.39
74474;BME280;62922;-6.168;106.796;2022-12-31T16:04:26;101205.19;;;27.51;73.36
74474;BME280;62922;-6.168;106.796;2022-12-31T16:06:57;101143.44;;;27.14;72.98
74474;BME280;62922;-6.168;106.796;2022-12-31T16:09:27;101131.34;;;27.19;73.53
74474;BME280;62922;-6.168;106.796;2022-12-31T16:11:56;101192.56;;;27.54;73.05
74474;BME280;62922;-6.168;106.796;2022-12-31T16:16:58;101172.53;;;27.42;73.25
74474;BME280;62922;-6.168;106.796;2022-12-31T16:21:55;101171.19;;;27.39;73.63
74474;BME280;62922;-6.168;106.796;2022-12-31T16:26:52;101168.13;;;27.54;73.33
74474;BME280;62922;-6.168;106.796;2022-12-31T16:29:21;101161.31;;;27.42;72.73
74474;BME280;62922;-6.168;106.796;2022-12-31T16:31:50;101137.72;;;27.24;72.85
74474;BME280;62922;-6.168;106.796;2022-12-31T16:34:23;101160.25;;;27.38;73.42
74474;BME280;62922;-6.168;106.796;2022-12-31T16:36:56;101144.38;;;27.28;73.33
74474;BME280;62922;-6.168;106.796;2022-12-31T16:39:30;101100.78;;;26.99;73.23
74474;BME280;62922;-6.168;106.796;2022-12-31T16:42:30;101157.50;;;27.33;72.66
74474;BME280;62922;-6.168;106.796;2022-12-31T16:44:46;101140.81;;;27.23;73.12
74474;BME280;62922;-6.168;106.796;2022-12-31T16:49:46;101037.19;;;26.80;73.30
74474;BME280;62922;-6.168;106.796;2022-12-31T16:52:35;101133.91;;;27.39;73.19
74474;BME280;62922;-6.168;106.796;2022-12-31T16:55:07;101143.44;;;27.38;73.62
74474;BME280;62922;-6.168;106.796;2022-12-31T16:57:34;101060.75;;;26.98;73.60
74474;BME280;62922;-6.168;106.796;2022-12-31T17:00:03;101133.66;;;27.35;72.99
74474;BME280;62922;-6.168;106.796;2022-12-31T17:02:55;101056.63;;;26.91;73.19
74474;BME280;62922;-6.168;106.796;2022-12-31T17:05:25;101124.13;;;27.36;73.84
74474;BME280;62922;-6.168;106.796;2022-12-31T17:07:52;101118.41;;;27.23;73.05
74474;BME280;62922;-6.168;106.796;2022-12-31T17:12:56;101119.75;;;27.25;74.02
74474;BME280;62922;-6.168;106.796;2022-12-31T17:15:27;101111.19;;;27.17;73.78
74474;BME280;62922;-6.168;106.796;2022-12-31T17:18:00;101066.72;;;26.92;73.96
74474;BME280;62922;-6.168;106.796;2022-12-31T17:20:29;101124.47;;;27.30;73.91
74474;BME280;62922;-6.168;106.796;2022-12-31T17:22:59;101110.59;;;27.20;74.19
74474;BME280;62922;-6.168;106.796;2022-12-31T17:25:29;101066.41;;;26.93;73.64
74474;BME280;62922;-6.168;106.796;2022-12-31T17:28:01;101130.69;;;27.27;74.46
74474;BME280;62922;-6.168;106.796;2022-12-31T17:35:28;101013.63;;;26.81;74.07
74474;BME280;62922;-6.168;106.796;2022-12-31T17:40:44;101070.47;;;27.24;74.44
74474;BME280;62922;-6.168;106.796;2022-12-31T17:43:14;101068.56;;;27.20;74.00
74474;BME280;62922;-6.168;106.796;2022-12-31T17:45:42;101059.94;;;27.16;74.03
74474;BME280;62922;-6.168;106.796;2022-12-31T17:48:14;101057.66;;;27.18;74.58